createdAt,value
2022-11-18T00:01:24.776Z,2.50
2022-11-18T00:03:53.249Z,2.50
2022-11-18T00:06:22.484Z,2.50
2022-11-18T00:08:50.470Z,2.50
2022-11-18T00:11:33.580Z,2.50
2022-11-18T00:14:21.311Z,2.40
2022-11-18T00:16:51.195Z,2.40
2022-11-18T00:19:19.671Z,2.30
2022-11-18T00:21:47.935Z,2.40
2022-11-18T00:24:15.920Z,2.40
2022-11-18T00:26:43.949Z,2.30
2022-11-18T00:29:13.409Z,2.30
2022-11-18T00:31:41.437Z,2.40
2022-11-18T00:34:11.861Z,2.40
2022-11-18T00:36:39.932Z,2.30
2022-11-18T00:39:07.937Z,2.40
2022-11-18T00:41:53.424Z,2.40
2022-11-18T00:44:22.796Z,2.40
2022-11-18T00:46:50.815Z,2.40
2022-11-18T00:49:19.089Z,2.40
2022-11-18T00:51:47.367Z,2.30
2022-11-18T00:54:15.367Z,2.20
2022-11-18T00:56:43.394Z,2.20
2022-11-18T00:59:11.401Z,2.20
2022-11-18T01:01:40.848Z,2.20
2022-11-18T01:04:08.882Z,2.20
2022-11-18T01:06:36.906Z,2.20
2022-11-18T01:09:05.052Z,2.10
2022-11-18T01:11:50.900Z,2.10
2022-11-18T01:14:18.955Z,2.10
2022-11-18T01:16:51.317Z,2.10
2022-11-18T01:19:19.753Z,2.20
2022-11-18T01:21:48.004Z,2.10
2022-11-18T01:24:15.999Z,2.10
2022-11-18T01:26:44.026Z,2.10
2022-11-18T01:29:12.029Z,2.00
2022-11-18T01:32:01.471Z,2.00
2022-11-18T01:34:30.375Z,2.10
2022-11-18T01:36:58.736Z,2.00
2022-11-18T01:39:26.860Z,2.00
2022-11-18T01:41:54.910Z,2.00
2022-11-18T01:45:10.511Z,2.00
2022-11-18T01:47:40.757Z,2.00
2022-11-18T01:50:10.323Z,2.00
2022-11-18T01:52:38.349Z,2.00
2022-11-18T01:55:09.235Z,1.90
2022-11-18T01:57:37.269Z,1.90
2022-11-18T02:00:06.277Z,1.90
2022-11-18T02:02:36.144Z,1.90
2022-11-18T02:05:04.378Z,2.00
2022-11-18T02:07:34.332Z,1.90
2022-11-18T02:10:03.269Z,1.80
2022-11-18T02:12:31.405Z,1.80
2022-11-18T02:14:59.425Z,1.80
2022-11-18T02:17:34.211Z,1.80
2022-11-18T02:20:14.713Z,1.80
2022-11-18T02:22:54.231Z,1.80
2022-11-18T02:25:23.300Z,1.80
2022-11-18T02:28:01.653Z,1.80
2022-11-18T02:30:31.270Z,1.80
2022-11-18T02:33:01.218Z,1.70
2022-11-18T02:35:30.658Z,1.70
2022-11-18T02:38:00.378Z,1.70
2022-11-18T02:40:30.251Z,1.60
2022-11-18T02:43:01.656Z,1.60
2022-11-18T02:45:31.039Z,1.60
2022-11-18T02:47:59.121Z,1.70
2022-11-18T02:50:27.228Z,1.60
2022-11-18T02:52:57.523Z,1.60
2022-11-18T02:55:25.548Z,1.70
2022-11-18T02:57:53.882Z,1.60
2022-11-18T03:00:21.948Z,1.60
2022-11-18T03:02:51.911Z,1.60
2022-11-18T03:05:23.342Z,1.50
2022-11-18T03:07:53.729Z,1.60
2022-11-18T03:10:21.774Z,1.60
2022-11-18T03:12:53.462Z,1.60
2022-11-18T03:15:24.818Z,1.60
2022-11-18T03:17:56.887Z,1.60
2022-11-18T03:20:26.641Z,1.60
2022-11-18T03:22:56.181Z,1.60
2022-11-18T03:25:27.215Z,1.60
2022-11-18T03:27:57.863Z,1.60
2022-11-18T03:30:26.200Z,1.50
2022-11-18T03:32:59.057Z,1.40
2022-11-18T03:35:28.295Z,1.40
2022-11-18T03:37:59.068Z,1.30
2022-11-18T03:40:27.930Z,1.20
2022-11-18T03:42:57.682Z,1.20
2022-11-18T03:45:26.882Z,1.10
2022-11-18T03:47:58.062Z,1.10
2022-11-18T03:50:28.042Z,1.00
2022-11-18T03:52:56.073Z,1.00
2022-11-18T03:55:25.982Z,1.00
2022-11-18T03:57:56.364Z,0.90
2022-11-18T04:00:24.378Z,0.80
2022-11-18T04:02:52.417Z,0.70
2022-11-18T04:05:21.786Z,0.80
2022-11-18T04:07:55.580Z,0.80
2022-11-18T04:10:25.569Z,0.80
2022-11-18T04:12:55.925Z,0.70
2022-11-18T04:15:25.466Z,0.80
2022-11-18T04:17:53.497Z,0.80
2022-11-18T04:20:23.131Z,0.80
2022-11-18T04:22:51.162Z,0.80
2022-11-18T04:25:19.160Z,0.70
2022-11-18T04:27:47.199Z,0.70
2022-11-18T04:30:15.333Z,0.60
2022-11-18T04:32:43.374Z,0.60
2022-11-18T04:35:11.382Z,0.60
2022-11-18T04:37:40.773Z,0.50
2022-11-18T04:40:10.170Z,0.40
2022-11-18T04:42:38.297Z,0.30
2022-11-18T04:45:07.465Z,0.30
2022-11-18T04:47:35.512Z,0.30
2022-11-18T04:50:03.531Z,0.20
2022-11-18T04:52:31.599Z,0.20
2022-11-18T04:55:00.979Z,0.20
2022-11-18T04:57:29.059Z,0.20
2022-11-18T04:59:57.046Z,0.10
2022-11-18T05:02:25.079Z,0.10
2022-11-18T05:04:53.095Z,0.00
2022-11-18T05:07:21.208Z,0.00
2022-11-18T05:09:49.281Z,-0.10
2022-11-18T05:12:36.298Z,0.00
2022-11-18T05:15:04.421Z,0.00
2022-11-18T05:17:32.453Z,0.00
2022-11-18T05:20:00.465Z,-0.10
2022-11-18T05:22:28.536Z,-0.10
2022-11-18T05:24:56.547Z,-0.10
2022-11-18T05:27:25.933Z,-0.20
2022-11-18T05:29:53.956Z,-0.20
2022-11-18T05:32:21.993Z,-0.20
2022-11-18T05:34:50.013Z,-0.20
2022-11-18T05:37:18.058Z,-0.30
2022-11-18T05:39:46.101Z,-0.40
2022-11-18T05:42:31.478Z,-0.50
2022-11-18T05:45:00.844Z,-0.50
2022-11-18T05:47:48.872Z,-0.60
2022-11-18T05:50:21.282Z,-0.50
2022-11-18T05:52:49.670Z,-0.50
2022-11-18T05:55:17.663Z,-0.50
2022-11-18T05:57:45.895Z,-0.50
2022-11-18T06:00:16.882Z,-0.50
2022-11-18T06:02:44.973Z,-0.50
2022-11-18T06:05:13.009Z,-0.50
2022-11-18T06:07:42.382Z,-0.60
2022-11-18T06:10:12.729Z,-0.50
2022-11-18T06:12:42.286Z,-0.50
2022-11-18T06:15:11.995Z,-0.50
2022-11-18T06:17:43.201Z,-0.50
2022-11-18T06:20:11.656Z,-0.40
2022-11-18T06:22:44.957Z,-0.40
2022-11-18T06:25:14.429Z,-0.40
2022-11-18T06:27:42.478Z,-0.40
2022-11-18T06:30:11.686Z,-0.40
2022-11-18T06:32:41.327Z,-0.50
2022-11-18T06:35:09.806Z,-0.50
2022-11-18T06:37:37.842Z,-0.50
2022-11-18T06:40:06.577Z,-0.50
2022-11-18T06:42:52.234Z,-0.50
2022-11-18T06:45:20.392Z,-0.50
2022-11-18T06:47:48.852Z,-0.50
2022-11-18T06:50:17.465Z,-0.50
2022-11-18T06:52:45.506Z,-0.50
2022-11-18T06:55:13.522Z,-0.50
2022-11-18T06:57:41.561Z,-0.40
2022-11-18T07:00:10.715Z,-0.30
2022-11-18T07:02:38.767Z,-0.20
2022-11-18T07:05:08.728Z,-0.20
2022-11-18T07:07:41.803Z,-0.10
2022-11-18T07:10:10.813Z,-0.20
2022-11-18T07:12:38.840Z,-0.10
2022-11-18T07:15:07.673Z,-0.10
2022-11-18T07:17:35.724Z,0.00
2022-11-18T07:20:03.727Z,0.00
2022-11-18T07:22:33.181Z,0.00
2022-11-18T07:25:01.192Z,0.00
2022-11-18T07:27:29.267Z,0.00
2022-11-18T07:29:57.308Z,0.10
2022-11-18T07:32:25.378Z,0.10
2022-11-18T07:34:53.401Z,0.10
2022-11-18T07:37:21.430Z,0.10
2022-11-18T07:39:50.812Z,0.10
2022-11-18T07:42:18.855Z,0.20
2022-11-18T07:44:46.894Z,0.20
2022-11-18T07:47:14.912Z,0.20
2022-11-18T07:49:42.964Z,0.20
2022-11-18T07:52:10.965Z,0.30
2022-11-18T07:54:39.020Z,0.30
2022-11-18T07:57:08.386Z,0.40
2022-11-18T07:59:36.436Z,0.40
2022-11-18T08:02:04.560Z,0.40
2022-11-18T08:04:32.654Z,0.40
2022-11-18T08:07:00.706Z,0.40
2022-11-18T08:09:28.753Z,0.40
2022-11-18T08:11:56.772Z,0.40
2022-11-18T08:14:26.185Z,0.50
2022-11-18T08:16:54.427Z,0.40
2022-11-18T08:19:22.628Z,0.50
2022-11-18T08:21:50.660Z,0.50
2022-11-18T08:24:18.704Z,0.50
2022-11-18T08:26:46.729Z,0.50
2022-11-18T08:29:16.206Z,0.40
2022-11-18T08:31:48.351Z,0.40
2022-11-18T08:34:16.401Z,0.40
2022-11-18T08:36:44.727Z,0.30
2022-11-18T08:39:12.980Z,0.30
2022-11-18T08:41:41.566Z,0.30
2022-11-18T08:44:11.476Z,0.40
2022-11-18T08:46:39.496Z,0.40
2022-11-18T08:49:08.897Z,0.50
2022-11-18T08:51:36.927Z,0.50
2022-11-18T08:54:05.320Z,0.60
2022-11-18T08:56:33.313Z,0.60
2022-11-18T08:59:01.351Z,0.70
2022-11-18T09:01:29.516Z,0.60
2022-11-18T09:03:57.894Z,0.70
2022-11-18T09:06:27.358Z,0.70
2022-11-18T09:08:55.499Z,0.50
2022-11-18T09:11:24.522Z,0.70
2022-11-18T09:16:41.639Z,0.70
2022-11-18T09:19:39.627Z,0.70
2022-11-18T09:21:59.033Z,0.80
2022-11-18T09:24:27.374Z,0.90
2022-11-18T09:26:55.400Z,0.90
2022-11-18T09:29:26.228Z,1.00
2022-11-18T09:31:54.582Z,1.30
2022-11-18T09:34:22.825Z,1.40
2022-11-18T09:36:50.863Z,1.90
2022-11-18T09:39:20.394Z,2.30
2022-11-18T09:41:49.039Z,2.60
2022-11-18T09:44:31.346Z,2.90
2022-11-18T09:47:05.860Z,3.10
2022-11-18T09:49:36.307Z,3.40
2022-11-18T09:52:05.757Z,3.60
2022-11-18T09:54:36.330Z,3.70
2022-11-18T09:57:04.483Z,3.80
2022-11-18T09:59:33.023Z,4.10
2022-11-18T10:02:04.854Z,4.00
2022-11-18T10:04:32.952Z,3.60
2022-11-18T10:07:01.045Z,3.40
2022-11-18T10:09:31.965Z,3.30
2022-11-18T10:12:10.163Z,3.30
2022-11-18T10:14:56.603Z,3.30
2022-11-18T10:17:32.740Z,3.00
2022-11-18T10:20:09.421Z,3.10
2022-11-18T10:22:41.259Z,3.00
2022-11-18T10:25:12.643Z,2.90
2022-11-18T10:27:42.539Z,2.80
2022-11-18T10:30:13.841Z,2.60
2022-11-18T10:32:54.764Z,2.50
2022-11-18T10:35:25.673Z,2.40
2022-11-18T10:38:09.421Z,2.30
2022-11-18T10:40:37.459Z,2.30
2022-11-18T10:43:06.864Z,2.30
2022-11-18T10:45:34.964Z,2.20
2022-11-18T10:48:08.188Z,2.10
2022-11-18T10:50:36.874Z,2.10
2022-11-18T10:53:06.383Z,2.20
2022-11-18T10:55:34.684Z,2.40
2022-11-18T10:58:04.436Z,2.70
2022-11-18T11:00:44.828Z,2.90
2022-11-18T11:03:34.469Z,3.10
2022-11-18T11:06:31.830Z,3.30
2022-11-18T11:09:01.665Z,3.40
2022-11-18T11:11:31.179Z,3.70
2022-11-18T11:14:08.626Z,3.80
2022-11-18T11:16:42.875Z,4.00
2022-11-18T11:19:11.642Z,3.80
2022-11-18T11:21:39.683Z,4.00
2022-11-18T11:24:12.523Z,4.00
2022-11-18T11:29:39.748Z,4.20
2022-11-18T11:32:12.448Z,4.20
2022-11-18T11:34:44.008Z,4.30
2022-11-18T11:37:16.069Z,4.40
2022-11-18T11:40:06.480Z,4.50
2022-11-18T11:42:40.727Z,4.60
2022-11-18T11:45:18.751Z,4.60
2022-11-18T11:47:57.205Z,4.60
2022-11-18T11:50:29.425Z,4.80
2022-11-18T11:53:06.684Z,4.70
2022-11-18T11:55:43.677Z,4.80
2022-11-18T11:58:20.956Z,4.80
2022-11-18T12:00:56.224Z,4.80
2022-11-18T12:03:51.706Z,4.70
2022-11-18T12:06:20.226Z,4.60
2022-11-18T12:08:51.605Z,4.60
2022-11-18T12:11:22.244Z,4.60
2022-11-18T12:13:53.763Z,4.60
2022-11-18T12:16:25.760Z,4.60
2022-11-18T12:18:58.546Z,4.70
2022-11-18T12:21:54.834Z,4.80
2022-11-18T12:24:34.278Z,4.80
2022-11-18T12:27:02.924Z,4.80
2022-11-18T12:29:37.076Z,4.80
2022-11-18T12:32:05.282Z,4.80
2022-11-18T12:34:39.218Z,4.70
2022-11-18T12:37:39.506Z,4.60
2022-11-18T12:40:09.387Z,4.40
2022-11-18T12:42:59.529Z,4.30
2022-11-18T12:45:58.447Z,4.30
2022-11-18T12:48:37.620Z,4.30
2022-11-18T12:51:42.758Z,4.10
2022-11-18T12:54:28.712Z,4.00
2022-11-18T12:56:57.089Z,4.00
2022-11-18T12:59:29.623Z,4.00
2022-11-18T13:02:21.400Z,3.90
2022-11-18T13:05:05.371Z,3.70
2022-11-18T13:07:52.721Z,3.60
2022-11-18T13:10:23.376Z,3.60
2022-11-18T13:12:52.341Z,3.50
2022-11-18T13:15:37.996Z,3.50
2022-11-18T13:18:12.985Z,3.40
2022-11-18T13:20:41.531Z,3.40
2022-11-18T13:23:44.912Z,3.40
2022-11-18T13:26:16.044Z,3.30
2022-11-18T13:28:46.640Z,3.40
2022-11-18T13:31:16.441Z,3.30
2022-11-18T13:33:44.519Z,3.30
2022-11-18T13:36:19.028Z,3.20
2022-11-18T13:38:57.677Z,3.20
2022-11-18T13:41:32.848Z,3.10
2022-11-18T13:44:16.809Z,3.10
2022-11-18T13:46:44.844Z,3.10
2022-11-18T13:49:13.607Z,3.00
2022-11-18T13:51:41.640Z,3.10
2022-11-18T13:54:12.129Z,3.00
2022-11-18T13:56:40.422Z,2.90
2022-11-18T13:59:18.016Z,2.90
2022-11-18T14:01:46.706Z,2.90
2022-11-18T14:04:18.952Z,2.80
2022-11-18T14:06:46.993Z,2.80
2022-11-18T14:09:24.420Z,2.70
2022-11-18T14:12:02.561Z,2.80
2022-11-18T14:14:32.370Z,2.70
2022-11-18T14:17:18.270Z,2.70
2022-11-18T14:19:46.330Z,2.70
2022-11-18T14:22:15.969Z,2.70
2022-11-18T14:24:45.382Z,2.60
2022-11-18T14:27:36.477Z,2.60
2022-11-18T14:30:29.403Z,2.50
2022-11-18T14:33:18.032Z,2.60
2022-11-18T14:35:48.927Z,2.50
2022-11-18T14:41:08.733Z,2.50
2022-11-18T14:43:36.791Z,2.50
2022-11-18T14:46:05.668Z,2.40
2022-11-18T14:48:33.772Z,2.20
2022-11-18T14:51:01.908Z,2.30
2022-11-18T14:53:29.946Z,2.20
2022-11-18T14:55:59.116Z,2.10
2022-11-18T14:58:28.551Z,2.10
2022-11-18T15:00:56.900Z,2.10
2022-11-18T15:03:25.009Z,2.00
2022-11-18T15:05:53.081Z,2.00
2022-11-18T15:08:21.183Z,1.90
2022-11-18T15:10:49.331Z,1.90
2022-11-18T15:13:17.484Z,1.90
2022-11-18T15:15:46.972Z,1.70
2022-11-18T15:18:15.107Z,1.70
2022-11-18T15:20:43.269Z,1.60
2022-11-18T15:23:11.304Z,1.60
2022-11-18T15:25:39.359Z,1.50
2022-11-18T15:28:07.415Z,1.40
2022-11-18T15:30:35.470Z,1.40
2022-11-18T15:33:04.851Z,1.40
2022-11-18T15:35:32.903Z,1.40
2022-11-18T15:38:00.932Z,1.30
2022-11-18T15:40:29.008Z,1.30
2022-11-18T15:42:57.040Z,1.20
2022-11-18T15:45:25.096Z,1.20
2022-11-18T15:47:53.151Z,1.10
2022-11-18T15:50:22.560Z,1.00
2022-11-18T15:52:50.603Z,1.00
2022-11-18T15:55:18.676Z,0.90
2022-11-18T15:57:46.706Z,0.90
2022-11-18T16:00:15.938Z,0.90
2022-11-18T16:02:45.136Z,0.80
2022-11-18T16:05:13.583Z,0.80
2022-11-18T16:07:43.020Z,0.70
2022-11-18T16:10:29.032Z,0.70
2022-11-18T16:12:57.065Z,0.60
2022-11-18T16:15:42.538Z,0.60
2022-11-18T16:18:10.592Z,0.50
2022-11-18T16:20:38.653Z,0.50
2022-11-18T16:23:08.055Z,0.40
2022-11-18T16:25:36.203Z,0.40
2022-11-18T16:28:07.119Z,0.30
2022-11-18T16:30:53.437Z,0.30
2022-11-18T16:33:21.470Z,0.30
2022-11-18T16:35:49.648Z,0.20
2022-11-18T16:38:19.042Z,0.20
2022-11-18T16:40:47.105Z,0.10
2022-11-18T16:43:15.102Z,0.10
2022-11-18T16:45:50.960Z,-0.10
2022-11-18T16:48:18.991Z,0.00
2022-11-18T16:50:47.046Z,0.00
2022-11-18T16:53:15.083Z,0.00
2022-11-18T16:55:44.496Z,-0.10
2022-11-18T16:58:12.523Z,-0.10
2022-11-18T17:01:15.988Z,-0.10
2022-11-18T17:03:28.604Z,-0.20
2022-11-18T17:05:56.661Z,-0.20
2022-11-18T17:08:24.691Z,-0.20
2022-11-18T17:10:54.112Z,-0.30
2022-11-18T17:13:22.145Z,-0.30
2022-11-18T17:15:50.225Z,-0.30
2022-11-18T17:18:18.260Z,-0.30
2022-11-18T17:20:46.326Z,-0.40
2022-11-18T17:23:14.381Z,-0.40
2022-11-18T17:25:43.674Z,-0.50
2022-11-18T17:28:13.076Z,-0.50
2022-11-18T17:30:44.509Z,-0.40
2022-11-18T17:33:15.465Z,-0.50
2022-11-18T17:35:43.524Z,-0.50
2022-11-18T17:38:11.548Z,-0.60
2022-11-18T17:40:39.622Z,-0.60
2022-11-18T17:43:07.841Z,-0.60
2022-11-18T17:45:37.247Z,-0.60
2022-11-18T17:48:05.561Z,-0.60
2022-11-18T17:50:33.661Z,-0.70
2022-11-18T17:53:01.691Z,-0.80
2022-11-18T17:55:29.745Z,-0.80
2022-11-18T17:57:57.766Z,-0.80
2022-11-18T18:00:26.109Z,-0.80
2022-11-18T18:02:55.500Z,-0.80
2022-11-18T18:05:23.555Z,-0.80
2022-11-18T18:07:52.743Z,-0.80
2022-11-18T18:10:21.270Z,-0.90
2022-11-18T18:13:06.666Z,-1.00
2022-11-18T18:15:34.863Z,-1.10
2022-11-18T18:18:04.335Z,-1.10
2022-11-18T18:20:32.387Z,-1.10
2022-11-18T18:23:00.397Z,-1.10
2022-11-18T18:25:28.446Z,-1.10
2022-11-18T18:27:56.472Z,-1.10
2022-11-18T18:30:24.587Z,-1.10
2022-11-18T18:32:52.868Z,-1.10
2022-11-18T18:35:22.304Z,-1.10
2022-11-18T18:37:50.331Z,-1.20
2022-11-18T18:40:18.523Z,-1.20
2022-11-18T18:42:46.550Z,-1.20
2022-11-18T18:45:32.264Z,-1.20
2022-11-18T18:48:03.563Z,-1.20
2022-11-18T18:50:34.153Z,-1.30
2022-11-18T18:53:02.305Z,-1.30
2022-11-18T18:55:30.358Z,-1.30
2022-11-18T18:57:58.407Z,-1.40
2022-11-18T19:00:26.460Z,-1.40
2022-11-18T19:02:54.488Z,-1.60
2022-11-18T19:05:38.858Z,-1.60
2022-11-18T19:08:11.939Z,-1.60
2022-11-18T19:10:40.230Z,-1.60
2022-11-18T19:13:07.291Z,-1.70
2022-11-18T19:15:35.462Z,-1.60
2022-11-18T19:18:03.885Z,-1.60
2022-11-18T19:20:34.703Z,-1.60
2022-11-18T19:23:08.626Z,-1.70
2022-11-18T19:25:39.439Z,-1.70
2022-11-18T19:28:08.299Z,-1.80
2022-11-18T19:30:36.372Z,-1.90
2022-11-18T19:33:05.547Z,-1.90
2022-11-18T19:35:33.613Z,-1.90
2022-11-18T19:38:01.643Z,-1.90
2022-11-18T19:40:29.706Z,-1.80
2022-11-18T19:42:59.090Z,-1.80
2022-11-18T19:45:27.151Z,-1.90
2022-11-18T19:47:55.182Z,-1.90
2022-11-18T19:50:23.234Z,-1.90
2022-11-18T19:52:51.284Z,-1.90
2022-11-18T19:55:19.344Z,-1.90
2022-11-18T19:57:47.383Z,-1.90
2022-11-18T20:00:18.601Z,-2.00
2022-11-18T20:02:46.635Z,-2.00
2022-11-18T20:05:47.332Z,-2.10
2022-11-18T20:08:15.824Z,-2.00
2022-11-18T20:10:43.874Z,-2.10
2022-11-18T20:13:11.905Z,-2.10
2022-11-18T20:15:41.465Z,-2.20
2022-11-18T20:18:09.530Z,-2.20
2022-11-18T20:20:37.826Z,-2.20
2022-11-18T20:23:05.941Z,-2.20
2022-11-18T20:25:34.024Z,-2.20
2022-11-18T20:28:02.066Z,-2.20
2022-11-18T20:30:30.266Z,-2.20
2022-11-18T20:32:59.935Z,-2.20
2022-11-18T20:35:27.999Z,-2.20
2022-11-18T20:37:56.051Z,-2.10
2022-11-18T20:40:24.095Z,-2.20
2022-11-18T20:43:08.716Z,-2.10
2022-11-18T20:45:36.779Z,-2.10
2022-11-18T20:48:06.675Z,-2.00
2022-11-18T20:50:37.641Z,-2.10
2022-11-18T20:53:06.024Z,-2.10
2022-11-18T20:55:37.069Z,-2.00
2022-11-18T20:58:05.196Z,-2.10
2022-11-18T21:00:33.314Z,-2.10
2022-11-18T21:03:01.360Z,-2.20
2022-11-18T21:05:31.281Z,-2.30
2022-11-18T21:07:59.306Z,-2.40
2022-11-18T21:10:27.377Z,-2.40
2022-11-18T21:13:12.682Z,-2.30
2022-11-18T21:15:40.736Z,-2.30
2022-11-18T21:18:08.784Z,-2.30
2022-11-18T21:20:55.940Z,-2.30
2022-11-18T21:23:23.981Z,-2.30
2022-11-18T21:25:52.040Z,-2.40
2022-11-18T21:28:20.067Z,-2.40
2022-11-18T21:30:48.115Z,-2.40
2022-11-18T21:33:16.142Z,-2.40
2022-11-18T21:35:45.538Z,-2.40
2022-11-18T21:38:13.570Z,-2.40
2022-11-18T21:40:41.641Z,-2.60
2022-11-18T21:43:09.668Z,-2.50
2022-11-18T21:45:37.729Z,-2.60
2022-11-18T21:48:06.070Z,-2.60
2022-11-18T21:50:34.100Z,-2.60
2022-11-18T21:53:03.551Z,-2.60
2022-11-18T21:55:31.592Z,-2.50
2022-11-18T21:58:02.997Z,-2.60
2022-11-18T22:00:32.267Z,-2.60
2022-11-18T22:03:00.361Z,-2.60
2022-11-18T22:05:28.406Z,-2.60
2022-11-18T22:07:56.464Z,-2.60
2022-11-18T22:10:25.891Z,-2.70
2022-11-18T22:12:53.967Z,-2.70
2022-11-18T22:15:22.015Z,-2.70
2022-11-18T22:17:50.079Z,-2.70
2022-11-18T22:20:18.266Z,-2.70
2022-11-18T22:22:46.315Z,-2.80
2022-11-18T22:25:14.352Z,-2.70
2022-11-18T22:27:43.769Z,-2.70
2022-11-18T22:30:12.344Z,-2.80
2022-11-18T22:32:40.408Z,-2.80
2022-11-18T22:35:09.661Z,-2.90
2022-11-18T22:37:37.731Z,-2.90
2022-11-18T22:40:06.790Z,-3.00
2022-11-18T22:42:57.887Z,-3.00
2022-11-18T22:45:27.275Z,-3.00
2022-11-18T22:47:55.327Z,-3.00
2022-11-18T22:50:23.348Z,-3.00
2022-11-18T22:52:51.395Z,-3.00
2022-11-18T22:55:19.571Z,-2.90
2022-11-18T22:57:47.649Z,-3.00
2022-11-18T23:00:16.974Z,-2.90
2022-11-18T23:02:46.405Z,-3.00
2022-11-18T23:05:14.438Z,-3.00
2022-11-18T23:07:42.531Z,-3.00
2022-11-18T23:10:11.036Z,-3.00
2022-11-18T23:12:56.527Z,-3.00
2022-11-18T23:15:24.554Z,-3.10
2022-11-18T23:17:53.971Z,-3.10
2022-11-18T23:20:22.031Z,-3.10
2022-11-18T23:22:50.098Z,-3.10
2022-11-18T23:25:18.216Z,-3.00
2022-11-18T23:27:49.229Z,-3.10
2022-11-18T23:30:21.145Z,-3.10
2022-11-18T23:32:49.206Z,-3.10
2022-11-18T23:35:18.681Z,-3.20
2022-11-18T23:37:46.740Z,-3.20
2022-11-18T23:40:15.085Z,-3.20
2022-11-18T23:42:43.135Z,-3.20
2022-11-18T23:45:11.724Z,-3.30
2022-11-18T23:47:39.759Z,-3.40
2022-11-18T23:50:08.792Z,-3.30
2022-11-18T23:52:41.651Z,-3.30
2022-11-18T23:55:10.208Z,-3.40
2022-11-18T23:57:38.260Z,-3.50
